N285AE KFCI-ZZZZ
Flight info
| Callsign | N285AE |
|---|---|
| Flight time | N/A |
| Altitude | 1800 |
| Route | HELICOPTER VFR |
| Aircraft | B06/L-V/N |
Departure
| Time | 2026-05-04 13:20 |
|---|---|
| Airport | Richmond Executive-Chesterfield County Airport (KFCI) |
Arrival
| Time | N/A |
|---|---|
| Airport | ZZZZ |
| Time | Latitude | Longitude | Altitude | Speed | Heading |
|---|---|---|---|---|---|
| 2026-05-04 13:13 | 37.40910 | -77.51976 | 220 ft | 0 kts | 235° |
| 2026-05-04 13:18 | 37.40903 | -77.51995 | 237 ft | 8 kts | 234° |
| 2026-05-04 13:18 | 37.40794 | -77.52163 | 277 ft | 24 kts | 231° |
| 2026-05-04 13:18 | 37.40731 | -77.52249 | 255 ft | 13 kts | 230° |
| 2026-05-04 13:19 | 37.40691 | -77.52324 | 280 ft | 15 kts | 230° |
| 2026-05-04 13:19 | 37.40581 | -77.52485 | 269 ft | 27 kts | 231° |
| 2026-05-04 13:19 | 37.40413 | -77.52507 | 231 ft | 33 kts | 146° |
| 2026-05-04 13:19 | 37.40257 | -77.52350 | 233 ft | 51 kts | 156° |
| 2026-05-04 13:20 | 37.39915 | -77.51990 | 314 ft | 79 kts | 146° |
| 2026-05-04 13:20 | 37.39493 | -77.51551 | 548 ft | 85 kts | 124° |
| 2026-05-04 13:20 | 37.39348 | -77.50789 | 759 ft | 89 kts | 96° |
| 2026-05-04 13:20 | 37.39323 | -77.49947 | 877 ft | 109 kts | 96° |
| 2026-05-04 13:21 | 37.39275 | -77.48937 | 868 ft | 120 kts | 97° |
| 2026-05-04 13:21 | 37.39226 | -77.47876 | 862 ft | 122 kts | 96° |
| 2026-05-04 13:21 | 37.39179 | -77.46815 | 864 ft | 122 kts | 96° |
| 2026-05-04 13:21 | 37.39130 | -77.45736 | 864 ft | 125 kts | 96° |
| 2026-05-04 13:22 | 37.39077 | -77.44644 | 864 ft | 125 kts | 96° |
| 2026-05-04 13:22 | 37.39020 | -77.43543 | 866 ft | 128 kts | 97° |
| 2026-05-04 13:22 | 37.38957 | -77.42413 | 864 ft | 130 kts | 97° |
| 2026-05-04 13:22 | 37.38890 | -77.41281 | 864 ft | 132 kts | 97° |
| 2026-05-04 13:23 | 37.38818 | -77.40124 | 864 ft | 133 kts | 96° |
| 2026-05-04 13:23 | 37.38743 | -77.38968 | 862 ft | 131 kts | 97° |
| 2026-05-04 13:23 | 37.38664 | -77.37828 | 861 ft | 130 kts | 98° |
| 2026-05-04 13:23 | 37.38579 | -77.36705 | 859 ft | 128 kts | 98° |
| 2026-05-04 13:24 | 37.38491 | -77.35595 | 857 ft | 128 kts | 99° |
| 2026-05-04 13:24 | 37.38400 | -77.34482 | 859 ft | 130 kts | 99° |
| 2026-05-04 13:24 | 37.38307 | -77.33336 | 857 ft | 133 kts | 99° |
| 2026-05-04 13:25 | 37.38117 | -77.31051 | 853 ft | 127 kts | 99° |
| 2026-05-04 13:25 | 37.38020 | -77.29951 | 858 ft | 127 kts | 100° |
| 2026-05-04 13:25 | 37.37916 | -77.28811 | 859 ft | 135 kts | 99° |
| 2026-05-04 13:25 | 37.37814 | -77.27649 | 856 ft | 134 kts | 99° |
| 2026-05-04 13:26 | 37.37717 | -77.26484 | 852 ft | 132 kts | 98° |
| 2026-05-04 13:26 | 37.37624 | -77.25351 | 856 ft | 128 kts | 99° |
| 2026-05-04 13:26 | 37.37530 | -77.24259 | 852 ft | 124 kts | 99° |
| 2026-05-04 13:26 | 37.37428 | -77.23192 | 859 ft | 126 kts | 99° |
| 2026-05-04 13:27 | 37.37322 | -77.22094 | 857 ft | 126 kts | 101° |
| 2026-05-04 13:27 | 37.37216 | -77.20998 | 851 ft | 125 kts | 101° |
| 2026-05-04 13:27 | 37.37110 | -77.19924 | 853 ft | 122 kts | 99° |
| 2026-05-04 13:27 | 37.37002 | -77.18854 | 853 ft | 125 kts | 99° |
| 2026-05-04 13:28 | 37.36893 | -77.17763 | 860 ft | 127 kts | 101° |
| 2026-05-04 13:28 | 37.36783 | -77.16657 | 856 ft | 126 kts | 99° |
| 2026-05-04 13:28 | 37.36676 | -77.15550 | 859 ft | 129 kts | 100° |
| 2026-05-04 13:28 | 37.36568 | -77.14426 | 849 ft | 129 kts | 101° |
| 2026-05-04 13:29 | 37.36461 | -77.13347 | 854 ft | 123 kts | 100° |
| 2026-05-04 13:29 | 37.36352 | -77.12273 | 866 ft | 126 kts | 102° |
| 2026-05-04 13:29 | 37.36237 | -77.11163 | 860 ft | 129 kts | 101° |
| 2026-05-04 13:29 | 37.36127 | -77.10073 | 864 ft | 126 kts | 101° |
| 2026-05-04 13:30 | 37.36019 | -77.08987 | 864 ft | 125 kts | 102° |
| 2026-05-04 13:30 | 37.35906 | -77.07890 | 863 ft | 130 kts | 99° |
| 2026-05-04 13:30 | 37.35791 | -77.06739 | 859 ft | 133 kts | 101° |
| 2026-05-04 13:30 | 37.35680 | -77.05593 | 863 ft | 130 kts | 100° |
| 2026-05-04 13:31 | 37.35567 | -77.04465 | 865 ft | 134 kts | 101° |
| 2026-05-04 13:31 | 37.35451 | -77.03300 | 867 ft | 135 kts | 101° |
| 2026-05-04 13:31 | 37.35334 | -77.02141 | 864 ft | 131 kts | 101° |
| 2026-05-04 13:31 | 37.35215 | -77.01005 | 860 ft | 131 kts | 102° |
| 2026-05-04 13:32 | 37.35095 | -76.99870 | 864 ft | 130 kts | 101° |
| 2026-05-04 13:32 | 37.34980 | -76.98758 | 865 ft | 130 kts | 101° |
| 2026-05-04 13:32 | 37.34860 | -76.97636 | 861 ft | 129 kts | 102° |
| 2026-05-04 13:32 | 37.34740 | -76.96530 | 857 ft | 127 kts | 102° |
| 2026-05-04 13:33 | 37.34623 | -76.95420 | 863 ft | 129 kts | 101° |
| 2026-05-04 13:33 | 37.34507 | -76.94282 | 861 ft | 132 kts | 100° |
| 2026-05-04 13:33 | 37.34389 | -76.93132 | 866 ft | 134 kts | 101° |
| 2026-05-04 13:33 | 37.34274 | -76.91967 | 862 ft | 134 kts | 100° |
| 2026-05-04 13:34 | 37.34163 | -76.90822 | 860 ft | 133 kts | 100° |
| 2026-05-04 13:34 | 37.34047 | -76.89675 | 856 ft | 130 kts | 101° |
| 2026-05-04 13:34 | 37.33931 | -76.88564 | 862 ft | 127 kts | 101° |
| 2026-05-04 13:34 | 37.33803 | -76.87467 | 860 ft | 127 kts | 101° |
| 2026-05-04 13:35 | 37.33671 | -76.86360 | 864 ft | 131 kts | 102° |
| 2026-05-04 13:35 | 37.33425 | -76.84107 | 861 ft | 129 kts | 101° |
| 2026-05-04 13:35 | 37.33304 | -76.82984 | 861 ft | 129 kts | 101° |
| 2026-05-04 13:36 | 37.33186 | -76.81876 | 854 ft | 127 kts | 100° |
| 2026-05-04 13:36 | 37.33072 | -76.80783 | 852 ft | 126 kts | 101° |
| 2026-05-04 13:36 | 37.32957 | -76.79687 | 851 ft | 127 kts | 101° |
| 2026-05-04 13:36 | 37.32836 | -76.78555 | 860 ft | 133 kts | 100° |
| 2026-05-04 13:37 | 37.32719 | -76.77415 | 857 ft | 129 kts | 99° |
| 2026-05-04 13:37 | 37.32609 | -76.76326 | 856 ft | 127 kts | 101° |
| 2026-05-04 13:37 | 37.32492 | -76.75213 | 860 ft | 130 kts | 100° |
| 2026-05-04 13:37 | 37.32371 | -76.74079 | 861 ft | 132 kts | 99° |
| 2026-05-04 13:38 | 37.32252 | -76.72920 | 855 ft | 135 kts | 101° |
| 2026-05-04 13:38 | 37.32134 | -76.71751 | 852 ft | 134 kts | 101° |
| 2026-05-04 13:38 | 37.32014 | -76.70604 | 858 ft | 131 kts | 102° |
| 2026-05-04 13:38 | 37.31890 | -76.69470 | 851 ft | 131 kts | 100° |
| 2026-05-04 13:39 | 37.31769 | -76.68342 | 859 ft | 131 kts | 101° |
| 2026-05-04 13:39 | 37.31646 | -76.67194 | 852 ft | 133 kts | 102° |
| 2026-05-04 13:39 | 37.31500 | -76.66043 | 849 ft | 131 kts | 105° |
| 2026-05-04 13:39 | 37.31256 | -76.65046 | 725 ft | 103 kts | 118° |
| 2026-05-04 13:40 | 37.31104 | -76.64426 | 498 ft | 54 kts | 92° |
| 2026-05-04 13:40 | 37.31017 | -76.64137 | 195 ft | 15 kts | 251° |
| 2026-05-04 13:40 | 37.30969 | -76.64270 | 102 ft | 14 kts | 255° |
| 2026-05-04 13:40 | 37.30961 | -76.64312 | 54 ft | 4 kts | 238° |
| 2026-05-04 13:41 | 37.30948 | -76.64323 | 41 ft | 0 kts | 213° |